createdAt,value
2017-08-20T00:02:13.317Z,23.20
2017-08-20T00:04:41.644Z,25.47
2017-08-20T00:07:09.945Z,25.57
2017-08-20T00:09:38.268Z,25.37
2017-08-20T00:12:06.572Z,24.67
2017-08-20T00:14:34.900Z,24.13
2017-08-20T00:17:03.228Z,25.67
2017-08-20T00:19:32.332Z,24.60
2017-08-20T00:22:01.442Z,25.80
2017-08-20T00:24:30.516Z,25.00
2017-08-20T00:26:58.860Z,25.83
2017-08-20T00:29:27.189Z,25.30
2017-08-20T00:31:55.500Z,28.20
2017-08-20T00:34:23.860Z,24.50
2017-08-20T00:36:52.161Z,27.67
2017-08-20T00:39:20.468Z,26.43
2017-08-20T00:41:48.817Z,27.40
2017-08-20T00:44:17.121Z,24.67
2017-08-20T00:46:45.458Z,27.37
2017-08-20T00:49:14.524Z,23.60
2017-08-20T00:51:42.855Z,23.00
2017-08-20T00:54:11.932Z,22.60
2017-08-20T00:56:40.264Z,22.60
2017-08-20T00:59:08.600Z,23.00
2017-08-20T01:01:36.927Z,21.10
2017-08-20T01:04:05.258Z,20.13
2017-08-20T01:06:33.567Z,22.03
2017-08-20T01:09:01.876Z,19.73
2017-08-20T01:11:30.225Z,22.73
2017-08-20T01:13:58.528Z,20.13
2017-08-20T01:16:26.872Z,19.40
2017-08-20T01:18:55.949Z,19.10
2017-08-20T01:21:24.261Z,21.00
2017-08-20T01:23:52.602Z,18.30
2017-08-20T01:26:20.904Z,18.07
2017-08-20T01:28:49.236Z,17.90
2017-08-20T01:31:18.316Z,16.27
2017-08-20T01:33:46.652Z,14.53
2017-08-20T01:36:14.995Z,15.20
2017-08-20T01:38:43.310Z,14.63
2017-08-20T01:41:12.417Z,13.73
2017-08-20T01:43:41.487Z,13.87
2017-08-20T01:46:09.841Z,12.83
2017-08-20T01:48:38.164Z,13.33
2017-08-20T01:51:06.501Z,12.40
2017-08-20T01:53:35.576Z,14.27
2017-08-20T01:56:03.892Z,12.83
2017-08-20T01:58:33.001Z,13.40
2017-08-20T02:01:02.096Z,13.30
2017-08-20T02:03:31.208Z,14.63
2017-08-20T02:05:59.522Z,17.10
2017-08-20T02:08:27.870Z,15.80
2017-08-20T02:10:56.180Z,18.17
2017-08-20T02:13:25.292Z,18.20
2017-08-20T02:15:54.365Z,16.70
2017-08-20T02:18:22.921Z,16.50
2017-08-20T02:20:51.252Z,17.40
2017-08-20T02:23:19.552Z,19.13
2017-08-20T02:25:47.852Z,19.40
2017-08-20T02:28:16.185Z,19.40
2017-08-20T02:30:44.517Z,21.70
2017-08-20T02:33:12.853Z,18.40
2017-08-20T02:35:41.184Z,18.57
2017-08-20T02:38:09.520Z,15.83
2017-08-20T02:40:38.625Z,17.00
2017-08-20T02:43:06.933Z,16.70
2017-08-20T02:45:35.265Z,15.17
2017-08-20T02:48:03.567Z,15.30
2017-08-20T02:50:32.068Z,15.90
2017-08-20T02:53:00.409Z,14.60
2017-08-20T02:55:28.743Z,14.47
2017-08-20T02:57:57.059Z,15.67
2017-08-20T03:00:25.403Z,14.17
2017-08-20T03:02:53.704Z,14.00
2017-08-20T03:05:22.044Z,14.00
2017-08-20T03:07:50.386Z,13.13
2017-08-20T03:10:18.724Z,13.93
2017-08-20T03:12:47.054Z,13.07
2017-08-20T03:15:15.372Z,13.80
2017-08-20T03:17:44.440Z,14.27
2017-08-20T03:20:12.787Z,14.50
2017-08-20T03:22:41.087Z,14.47
2017-08-20T03:25:09.388Z,14.83
2017-08-20T03:27:37.725Z,13.57
2017-08-20T03:30:06.035Z,14.53
2017-08-20T03:32:35.156Z,13.80
2017-08-20T03:35:03.497Z,15.40
2017-08-20T03:37:31.810Z,12.63
2017-08-20T03:40:00.149Z,14.70
2017-08-20T03:42:28.469Z,14.80
2017-08-20T03:44:56.808Z,13.43
2017-08-20T03:47:25.113Z,13.03
2017-08-20T03:49:53.447Z,13.73
2017-08-20T03:52:21.752Z,14.00
2017-08-20T03:54:50.860Z,14.43
2017-08-20T03:57:19.965Z,13.40
2017-08-20T03:59:49.060Z,13.07
2017-08-20T04:02:17.388Z,14.23
2017-08-20T04:04:45.705Z,15.87
2017-08-20T04:07:14.029Z,15.60
2017-08-20T04:09:42.364Z,13.60
2017-08-20T04:12:10.684Z,15.00
2017-08-20T04:14:39.027Z,15.33
2017-08-20T04:17:08.119Z,16.00
2017-08-20T04:19:37.477Z,15.47
2017-08-20T04:22:05.830Z,16.03
2017-08-20T04:24:35.316Z,14.00
2017-08-20T04:27:03.612Z,15.37
2017-08-20T04:29:31.928Z,14.80
2017-08-20T04:32:01.037Z,17.10
2017-08-20T04:34:29.352Z,17.00
2017-08-20T04:36:57.680Z,15.97
2017-08-20T04:39:25.984Z,15.30
2017-08-20T04:41:54.324Z,16.90
2017-08-20T04:44:22.629Z,17.67
2017-08-20T04:46:50.933Z,17.73
2017-08-20T04:49:19.266Z,19.20
2017-08-20T04:51:48.335Z,20.23
2017-08-20T04:54:16.669Z,17.03
2017-08-20T04:56:45.011Z,17.73
2017-08-20T04:59:13.321Z,19.13
2017-08-20T05:01:41.659Z,17.00
2017-08-20T05:04:09.959Z,16.30
2017-08-20T05:06:38.308Z,15.87
2017-08-20T05:09:07.400Z,18.87
2017-08-20T05:11:36.471Z,16.10
2017-08-20T05:14:04.800Z,18.23
2017-08-20T05:16:33.872Z,15.20
2017-08-20T05:19:02.217Z,15.47
2017-08-20T05:21:30.528Z,15.83
2017-08-20T05:23:58.841Z,16.50
2017-08-20T05:26:27.176Z,14.90
2017-08-20T05:28:56.248Z,16.00
2017-08-20T05:31:24.597Z,15.13
2017-08-20T05:33:52.926Z,14.40
2017-08-20T05:36:21.256Z,14.40
2017-08-20T05:38:49.560Z,13.27
2017-08-20T05:41:17.861Z,13.50
2017-08-20T05:43:46.197Z,13.30
2017-08-20T05:46:14.505Z,13.53
2017-08-20T05:48:43.604Z,14.57
2017-08-20T05:51:12.686Z,13.00
2017-08-20T05:53:41.015Z,11.43
2017-08-20T05:56:10.116Z,11.13
2017-08-20T05:58:39.181Z,11.10
2017-08-20T06:01:07.491Z,10.07
2017-08-20T06:03:35.828Z,11.90
2017-08-20T06:06:04.137Z,12.00
2017-08-20T06:08:32.477Z,10.33
2017-08-20T06:11:00.785Z,13.30
2017-08-20T06:13:29.129Z,11.13
2017-08-20T06:15:57.465Z,11.00
2017-08-20T06:18:25.801Z,10.77
2017-08-20T06:20:54.106Z,11.40
2017-08-20T06:23:22.445Z,12.50
2017-08-20T06:25:50.784Z,11.10
2017-08-20T06:28:19.102Z,10.50
2017-08-20T06:30:48.193Z,9.00
2017-08-20T06:33:16.525Z,9.33
2017-08-20T06:35:44.820Z,9.60
2017-08-20T06:38:13.152Z,8.83
2017-08-20T06:40:41.444Z,7.77
2017-08-20T06:43:09.757Z,7.13
2017-08-20T06:45:38.854Z,7.10
2017-08-20T06:48:07.917Z,8.43
2017-08-20T06:50:36.249Z,8.63
2017-08-20T06:53:05.348Z,7.43
2017-08-20T06:55:33.648Z,7.40
2017-08-20T06:58:02.731Z,7.17
2017-08-20T07:00:31.051Z,6.97
2017-08-20T07:03:00.149Z,7.80
2017-08-20T07:05:28.481Z,6.37
2017-08-20T07:07:56.823Z,6.33
2017-08-20T07:10:25.217Z,6.20
2017-08-20T07:12:53.686Z,6.80
2017-08-20T07:15:22.285Z,5.90
2017-08-20T07:17:50.698Z,8.37
2017-08-20T07:20:19.020Z,6.20
2017-08-20T07:22:47.399Z,6.77
2017-08-20T07:25:15.760Z,5.13
2017-08-20T07:27:44.288Z,5.63
2017-08-20T07:30:12.640Z,6.00
2017-08-20T07:32:41.228Z,6.43
2017-08-20T07:35:09.540Z,6.30
2017-08-20T07:37:37.873Z,6.90
2017-08-20T07:40:06.189Z,6.50
2017-08-20T07:42:34.508Z,6.77
2017-08-20T07:45:03.645Z,7.13
2017-08-20T07:47:31.982Z,6.07
2017-08-20T07:50:01.336Z,6.90
2017-08-20T07:52:30.419Z,6.03
2017-08-20T07:54:58.762Z,5.97
2017-08-20T07:57:27.066Z,5.37
2017-08-20T07:59:55.356Z,5.43
2017-08-20T08:02:23.675Z,7.17
2017-08-20T08:04:52.008Z,6.10
2017-08-20T08:07:20.337Z,6.47
2017-08-20T08:09:48.640Z,7.47
2017-08-20T08:12:16.945Z,6.57
2017-08-20T08:14:45.274Z,7.40
2017-08-20T08:17:13.569Z,4.97
2017-08-20T08:19:41.976Z,6.13
2017-08-20T08:22:10.341Z,6.67
2017-08-20T08:24:38.636Z,7.90
2017-08-20T08:27:06.944Z,7.73
2017-08-20T08:29:35.281Z,7.90
2017-08-20T08:32:04.354Z,8.17
2017-08-20T08:34:32.660Z,8.10
2017-08-20T08:37:00.993Z,8.43
2017-08-20T08:39:29.360Z,8.20
2017-08-20T08:41:59.004Z,8.60
2017-08-20T08:44:27.350Z,8.67
2017-08-20T08:46:55.676Z,7.77
2017-08-20T08:49:23.980Z,8.63
2017-08-20T08:51:52.320Z,8.23
2017-08-20T08:54:20.649Z,8.40
2017-08-20T08:56:48.948Z,8.33
2017-08-20T08:59:17.252Z,7.43
2017-08-20T09:01:45.581Z,8.20
2017-08-20T09:04:13.871Z,8.67
2017-08-20T09:06:42.967Z,9.73
2017-08-20T09:09:11.303Z,8.70
2017-08-20T09:11:39.603Z,7.57
2017-08-20T09:14:07.912Z,7.57
2017-08-20T09:16:36.724Z,7.40
2017-08-20T09:19:05.023Z,7.77
2017-08-20T11:17:55.851Z,4.70
2017-08-20T11:20:35.225Z,4.20
2017-08-20T11:23:03.649Z,5.77
2017-08-20T11:25:32.744Z,4.00
2017-08-20T11:28:01.053Z,6.80
2017-08-20T11:30:30.126Z,5.83
2017-08-20T11:32:58.449Z,4.83
2017-08-20T11:35:27.517Z,4.40
2017-08-20T11:37:56.106Z,4.67
2017-08-20T11:40:24.419Z,3.83
2017-08-20T11:42:52.714Z,3.60
2017-08-20T11:45:21.045Z,3.50
2017-08-20T11:47:49.332Z,4.20
2017-08-20T11:50:17.662Z,4.97
2017-08-20T11:52:45.971Z,4.57
2017-08-20T11:55:14.292Z,4.60
2017-08-20T11:57:42.671Z,4.60
2017-08-20T12:00:11.280Z,4.13
2017-08-20T12:02:39.617Z,4.00
2017-08-20T12:05:08.207Z,3.67
2017-08-20T12:07:36.556Z,4.47
2017-08-20T12:10:04.873Z,3.87
2017-08-20T12:12:33.209Z,4.13
2017-08-20T12:17:59.065Z,5.00
2017-08-20T12:20:27.397Z,4.17
2017-08-20T12:22:56.050Z,4.13
2017-08-20T12:25:24.532Z,4.90
2017-08-20T12:27:52.873Z,3.73
2017-08-20T12:30:30.717Z,3.77
2017-08-20T12:32:59.892Z,3.87
2017-08-20T12:35:28.188Z,3.47
2017-08-20T12:37:56.589Z,2.70
2017-08-20T12:40:24.967Z,2.83
2017-08-20T12:42:53.307Z,3.73
2017-08-20T12:45:21.659Z,3.57
2017-08-20T12:47:50.015Z,3.43
2017-08-20T12:50:18.346Z,3.90
2017-08-20T12:52:46.639Z,3.20
2017-08-20T12:55:15.033Z,3.43
2017-08-20T12:57:43.341Z,3.40
2017-08-20T13:00:11.640Z,3.63
2017-08-20T13:02:40.401Z,3.00
2017-08-20T13:05:09.177Z,3.60
2017-08-20T13:07:37.908Z,4.53
2017-08-20T13:10:06.204Z,3.50
2017-08-20T13:12:34.524Z,2.70
2017-08-20T13:15:03.231Z,2.83
2017-08-20T13:17:32.304Z,2.93
2017-08-20T13:20:00.624Z,2.53
2017-08-20T13:22:29.724Z,2.40
2017-08-20T13:24:58.058Z,2.10
2017-08-20T13:27:26.344Z,1.97
2017-08-20T13:29:54.650Z,2.20
2017-08-20T13:32:23.132Z,2.53
2017-08-20T13:34:51.521Z,2.77
2017-08-20T13:40:14.999Z,3.73
2017-08-20T13:42:43.915Z,1.90
2017-08-20T13:45:12.232Z,2.70
2017-08-20T13:47:40.562Z,2.47
2017-08-20T13:50:08.851Z,1.97
2017-08-20T13:52:37.963Z,2.50
2017-08-20T13:58:04.265Z,2.53
2017-08-20T14:00:33.376Z,2.23
2017-08-20T14:03:02.604Z,1.93
2017-08-20T14:05:30.940Z,2.10
2017-08-20T14:07:59.344Z,1.97
2017-08-20T14:10:28.667Z,1.73
2017-08-20T14:12:57.727Z,2.13
2017-08-20T14:15:26.026Z,2.00
2017-08-20T14:17:54.352Z,1.93
2017-08-20T14:20:23.541Z,2.10
2017-08-20T14:22:51.916Z,2.17
2017-08-20T14:25:20.248Z,2.10
2017-08-20T14:27:49.447Z,2.37
2017-08-20T14:30:17.929Z,2.70
2017-08-20T14:32:46.410Z,1.43
2017-08-20T14:35:14.792Z,1.90
2017-08-20T14:37:43.555Z,2.03
2017-08-20T14:40:11.934Z,2.13
2017-08-20T14:42:40.252Z,1.90
2017-08-20T14:45:08.589Z,2.00
2017-08-20T14:47:36.908Z,1.50
2017-08-20T14:50:05.203Z,1.47
2017-08-20T14:52:33.624Z,1.93
2017-08-20T14:55:01.925Z,1.63
2017-08-20T14:57:30.268Z,1.60
2017-08-20T14:59:58.608Z,1.80
2017-08-20T15:02:26.980Z,1.73
2017-08-20T15:04:55.296Z,1.90
2017-08-20T15:07:23.708Z,2.00
2017-08-20T15:09:52.083Z,1.67
2017-08-20T15:12:20.612Z,1.60
2017-08-20T15:14:49.044Z,1.87
2017-08-20T15:17:17.326Z,1.53
2017-08-20T15:19:45.650Z,1.70
2017-08-20T15:31:19.153Z,1.57
2017-08-20T15:33:47.532Z,2.10
2017-08-20T15:36:15.857Z,1.80
2017-08-20T15:38:45.007Z,1.53
2017-08-20T15:41:13.374Z,1.67
2017-08-20T15:43:42.653Z,1.67
2017-08-20T15:46:11.022Z,1.60
2017-08-20T15:48:39.412Z,1.40
2017-08-20T15:51:07.924Z,1.77
2017-08-20T15:53:36.324Z,1.80
2017-08-20T15:56:04.819Z,1.40
2017-08-20T15:58:33.312Z,2.17
2017-08-20T16:01:01.910Z,2.40
2017-08-20T16:03:30.812Z,1.80
2017-08-20T16:05:59.213Z,1.90
2017-08-20T16:08:27.635Z,1.87
2017-08-20T16:10:56.001Z,1.83
2017-08-20T16:13:24.378Z,1.60
2017-08-20T16:15:52.821Z,2.77
2017-08-20T16:18:21.212Z,2.10
2017-08-20T16:20:49.704Z,2.20
2017-08-20T16:23:18.089Z,2.33
2017-08-20T16:25:46.638Z,1.87
2017-08-20T16:28:15.055Z,2.07
2017-08-20T16:30:43.430Z,2.70
2017-08-20T16:33:11.839Z,2.07
2017-08-20T16:35:40.232Z,2.13
2017-08-20T16:38:08.648Z,2.40
2017-08-20T16:40:37.017Z,2.50
2017-08-20T16:43:06.291Z,2.73
2017-08-20T16:45:35.447Z,2.17
2017-08-20T16:48:03.810Z,2.30
2017-08-20T16:50:32.208Z,2.80
2017-08-20T16:53:00.611Z,2.20
2017-08-20T16:55:29.009Z,2.17
2017-08-20T16:57:57.433Z,1.73
2017-08-20T17:00:25.822Z,1.50
2017-08-20T17:02:54.223Z,2.07
2017-08-20T17:05:22.647Z,2.23
2017-08-20T17:07:51.043Z,1.80
2017-08-20T17:10:19.448Z,2.07
2017-08-20T17:12:47.849Z,2.73
2017-08-20T17:15:16.231Z,2.20
2017-08-20T17:17:44.640Z,1.63
2017-08-20T17:20:13.279Z,1.80
2017-08-20T17:22:41.669Z,1.60
2017-08-20T17:25:10.513Z,2.60
2017-08-20T17:27:38.928Z,2.33
2017-08-20T17:30:07.407Z,2.17
2017-08-20T17:32:35.824Z,2.30
2017-08-20T17:35:04.301Z,2.47
2017-08-20T17:37:32.692Z,2.30
2017-08-20T17:40:01.176Z,2.63
2017-08-20T17:42:29.621Z,2.43
2017-08-20T17:44:58.787Z,2.23
2017-08-20T17:47:27.262Z,1.93
2017-08-20T17:49:55.721Z,2.30
2017-08-20T18:13:11.390Z,2.53
2017-08-20T18:15:39.711Z,2.23
2017-08-20T18:18:09.017Z,2.87
2017-08-20T18:20:39.769Z,3.10
2017-08-20T18:23:08.063Z,2.60
2017-08-20T18:25:36.390Z,2.87
2017-08-20T18:28:04.728Z,3.13
2017-08-20T19:02:44.092Z,3.60
2017-08-20T19:05:12.475Z,3.83
2017-08-20T19:07:40.898Z,3.47
2017-08-20T19:10:09.357Z,3.70
2017-08-20T19:12:38.479Z,4.13
2017-08-20T19:15:06.891Z,3.20
2017-08-20T19:17:35.265Z,3.63
2017-08-20T19:20:03.673Z,3.90
2017-08-20T19:22:32.014Z,4.83
2017-08-20T19:25:00.376Z,3.40
2017-08-20T19:27:28.806Z,3.80
2017-08-20T19:29:57.176Z,3.40
2017-08-20T19:35:22.480Z,4.07
2017-08-20T19:37:50.800Z,3.70
2017-08-20T19:43:19.051Z,3.60
2017-08-20T19:45:47.383Z,3.80
2017-08-20T19:48:16.559Z,3.93
2017-08-20T19:50:44.892Z,4.20
2017-08-20T19:53:13.960Z,4.90
2017-08-20T19:55:42.282Z,4.50
2017-08-20T19:58:11.369Z,4.60
2017-08-20T20:00:39.667Z,4.00
2017-08-20T20:03:07.988Z,4.50
2017-08-20T20:05:36.284Z,4.17
2017-08-20T20:08:04.615Z,3.67
2017-08-20T20:10:32.921Z,4.23
2017-08-20T20:13:01.241Z,4.17
2017-08-20T20:15:29.569Z,3.80
2017-08-20T20:17:57.904Z,4.30
2017-08-20T20:20:26.968Z,4.40
2017-08-20T20:22:55.289Z,4.30
2017-08-20T20:25:39.239Z,5.03
2017-08-20T20:28:08.155Z,4.07
2017-08-20T20:30:36.495Z,4.77
2017-08-20T20:33:04.823Z,4.47
2017-08-20T20:35:33.120Z,4.60
2017-08-20T20:38:01.503Z,4.40
2017-08-20T20:40:29.968Z,5.27
2017-08-20T20:42:58.274Z,4.37
2017-08-20T20:45:26.636Z,5.17
2017-08-20T20:47:54.937Z,4.23
2017-08-20T20:50:23.402Z,5.77
2017-08-20T20:52:52.161Z,4.70
2017-08-20T20:55:20.622Z,5.60
2017-08-20T20:57:49.012Z,4.93
2017-08-20T21:00:24.893Z,5.30
2017-08-20T21:02:53.394Z,4.90
2017-08-20T21:05:21.757Z,4.57
2017-08-20T21:07:50.219Z,4.67
2017-08-20T21:10:18.601Z,5.87
2017-08-20T21:12:46.976Z,5.30
2017-08-20T21:15:15.321Z,4.67
2017-08-20T21:17:43.653Z,5.43
2017-08-20T21:20:12.391Z,5.50
2017-08-20T21:22:41.396Z,5.80
2017-08-20T21:25:09.815Z,5.53
2017-08-20T21:27:38.177Z,6.67
2017-08-20T21:30:06.499Z,5.60
2017-08-20T21:32:34.793Z,8.20
2017-08-20T21:35:03.149Z,5.80
2017-08-20T21:37:31.537Z,4.90
2017-08-20T21:39:59.963Z,6.40
2017-08-20T21:42:29.883Z,5.00
2017-08-20T21:44:58.231Z,6.50
2017-08-20T21:47:26.543Z,5.67
2017-08-20T21:49:54.843Z,7.60
2017-08-20T21:52:23.231Z,5.07
2017-08-20T21:54:51.780Z,5.33
2017-08-20T21:57:20.111Z,5.90
2017-08-20T21:59:48.495Z,5.63
2017-08-20T22:02:16.808Z,5.73
2017-08-20T22:04:45.110Z,5.20
2017-08-20T22:07:13.748Z,5.57
2017-08-20T22:09:42.057Z,4.97
2017-08-20T22:12:11.013Z,5.30
2017-08-20T22:14:39.311Z,4.83
2017-08-20T22:17:07.619Z,5.33
2017-08-20T22:19:35.947Z,5.50
2017-08-20T22:22:04.244Z,4.57
2017-08-20T22:24:32.593Z,4.60
2017-08-20T22:27:00.923Z,5.13
2017-08-20T22:29:29.970Z,4.50
2017-08-20T22:31:58.288Z,5.17
2017-08-20T22:34:26.593Z,5.27
2017-08-20T22:36:54.932Z,5.30
2017-08-20T22:39:23.233Z,4.90
2017-08-20T22:41:51.560Z,5.17
2017-08-20T22:44:19.863Z,5.80
2017-08-20T22:46:48.208Z,4.60
2017-08-20T22:49:16.496Z,5.37
2017-08-20T22:51:44.812Z,5.00
2017-08-20T22:54:13.166Z,5.50
2017-08-20T22:56:42.247Z,6.20
2017-08-20T22:59:10.573Z,5.97
2017-08-20T23:01:38.923Z,6.23
2017-08-20T23:04:07.253Z,5.70
2017-08-20T23:06:35.555Z,5.37
2017-08-20T23:09:04.664Z,5.90
2017-08-20T23:11:33.746Z,4.17
2017-08-20T23:14:02.295Z,6.10
2017-08-20T23:16:30.622Z,6.60
2017-08-20T23:18:58.947Z,4.90
2017-08-20T23:21:28.031Z,5.67
2017-08-20T23:23:56.332Z,5.03
2017-08-20T23:26:25.432Z,5.63
2017-08-20T23:28:53.749Z,4.93
2017-08-20T23:31:22.840Z,5.13
2017-08-20T23:33:51.164Z,5.97
2017-08-20T23:36:19.487Z,5.90
2017-08-20T23:38:47.799Z,5.73
2017-08-20T23:41:16.155Z,5.40
2017-08-20T23:43:44.475Z,5.93
2017-08-20T23:46:12.866Z,6.00
2017-08-20T23:48:41.220Z,6.70
2017-08-20T23:51:09.570Z,6.07
2017-08-20T23:53:38.632Z,5.90
2017-08-20T23:56:06.943Z,4.77
2017-08-20T23:58:36.320Z,5.77
